SVA216 OEDF-OPKC
Flight info
| Callsign | SVA216 |
|---|---|
| Flight time | 2h 28m |
| Altitude | 37000 |
| Route | LADNA1F LADNA DCT TOSTA DCT SOLOB DCT TATLA DCT KATUS A791 BIVIN R462 LAKIV LAKIV1C |
| Aircraft | B748/H-SDE3FGHIM1M2RWXY/LB1 |
Departure
| Time | 2026-05-09 15:52 |
|---|---|
| Airport | King Fahd International Airport (OEDF) |
Arrival
| Time | 2026-05-09 18:20 |
|---|---|
| Airport | Jinnah International Airport (OPKC) |
| Time | Latitude | Longitude | Altitude | Speed | Heading |
|---|---|---|---|---|---|
| 2026-05-09 15:35 | 26.48420 | 49.78598 | 93 ft | 0 kts | 164° |
| 2026-05-09 15:37 | 26.48406 | 49.78602 | 93 ft | 4 kts | 164° |
| 2026-05-09 15:38 | 26.48371 | 49.78614 | 96 ft | 7 kts | 164° |
| 2026-05-09 15:38 | 26.48315 | 49.78631 | 97 ft | 10 kts | 164° |
| 2026-05-09 15:38 | 26.48240 | 49.78655 | 96 ft | 13 kts | 164° |
| 2026-05-09 15:38 | 26.48147 | 49.78683 | 96 ft | 15 kts | 166° |
| 2026-05-09 15:39 | 26.48048 | 49.78712 | 97 ft | 14 kts | 165° |
| 2026-05-09 15:39 | 26.47957 | 49.78740 | 96 ft | 13 kts | 165° |
| 2026-05-09 15:39 | 26.47872 | 49.78767 | 97 ft | 12 kts | 164° |
| 2026-05-09 15:39 | 26.47794 | 49.78792 | 98 ft | 11 kts | 164° |
| 2026-05-09 15:40 | 26.47721 | 49.78815 | 97 ft | 10 kts | 164° |
| 2026-05-09 15:40 | 26.47656 | 49.78835 | 98 ft | 9 kts | 164° |
| 2026-05-09 15:40 | 26.47595 | 49.78854 | 97 ft | 9 kts | 164° |
| 2026-05-09 15:40 | 26.47540 | 49.78872 | 96 ft | 8 kts | 164° |
| 2026-05-09 15:41 | 26.47497 | 49.78895 | 95 ft | 5 kts | 136° |
| 2026-05-09 15:41 | 26.47485 | 49.78921 | 95 ft | 2 kts | 103° |
| 2026-05-09 15:41 | 26.47485 | 49.78942 | 95 ft | 4 kts | 87° |
| 2026-05-09 15:41 | 26.47491 | 49.78980 | 97 ft | 6 kts | 77° |
| 2026-05-09 15:42 | 26.47504 | 49.79034 | 98 ft | 8 kts | 75° |
| 2026-05-09 15:42 | 26.47522 | 49.79104 | 97 ft | 10 kts | 74° |
| 2026-05-09 15:42 | 26.47544 | 49.79190 | 96 ft | 12 kts | 73° |
| 2026-05-09 15:42 | 26.47566 | 49.79281 | 98 ft | 12 kts | 75° |
| 2026-05-09 15:43 | 26.47587 | 49.79364 | 102 ft | 10 kts | 74° |
| 2026-05-09 15:43 | 26.47605 | 49.79435 | 105 ft | 9 kts | 75° |
| 2026-05-09 15:43 | 26.47623 | 49.79508 | 105 ft | 11 kts | 75° |
| 2026-05-09 15:43 | 26.47647 | 49.79603 | 106 ft | 15 kts | 73° |
| 2026-05-09 15:44 | 26.47682 | 49.79729 | 104 ft | 19 kts | 72° |
| 2026-05-09 15:44 | 26.47726 | 49.79879 | 103 ft | 21 kts | 79° |
| 2026-05-09 15:44 | 26.47760 | 49.80061 | 98 ft | 27 kts | 76° |
| 2026-05-09 15:44 | 26.47813 | 49.80272 | 97 ft | 29 kts | 75° |
| 2026-05-09 15:45 | 26.47822 | 49.80482 | 97 ft | 26 kts | 113° |
| 2026-05-09 15:45 | 26.47699 | 49.80626 | 97 ft | 27 kts | 136° |
| 2026-05-09 15:45 | 26.47680 | 49.80748 | 96 ft | 7 kts | 21° |
| 2026-05-09 15:45 | 26.47731 | 49.80742 | 107 ft | 8 kts | 347° |
| 2026-05-09 15:46 | 26.47797 | 49.80723 | 96 ft | 11 kts | 342° |
| 2026-05-09 15:46 | 26.47881 | 49.80714 | 98 ft | 13 kts | 12° |
| 2026-05-09 15:46 | 26.47941 | 49.80778 | 98 ft | 14 kts | 70° |
| 2026-05-09 15:46 | 26.47916 | 49.80864 | 99 ft | 12 kts | 151° |
| 2026-05-09 15:47 | 26.47822 | 49.80898 | 95 ft | 16 kts | 162° |
| 2026-05-09 15:47 | 26.47700 | 49.80938 | 97 ft | 20 kts | 163° |
| 2026-05-09 15:47 | 26.47546 | 49.80986 | 95 ft | 26 kts | 165° |
| 2026-05-09 15:47 | 26.47359 | 49.81044 | 96 ft | 30 kts | 164° |
| 2026-05-09 15:48 | 26.47141 | 49.81112 | 96 ft | 35 kts | 164° |
| 2026-05-09 15:48 | 26.46896 | 49.81187 | 99 ft | 38 kts | 165° |
| 2026-05-09 15:48 | 26.46627 | 49.81270 | 98 ft | 42 kts | 165° |
| 2026-05-09 15:48 | 26.46350 | 49.81356 | 98 ft | 35 kts | 164° |
| 2026-05-09 15:49 | 26.46106 | 49.81431 | 97 ft | 38 kts | 165° |
| 2026-05-09 15:49 | 26.45839 | 49.81513 | 96 ft | 40 kts | 164° |
| 2026-05-09 15:49 | 26.45624 | 49.81580 | 96 ft | 28 kts | 165° |
| 2026-05-09 15:49 | 26.45460 | 49.81606 | 97 ft | 14 kts | 212° |
| 2026-05-09 15:50 | 26.45421 | 49.81520 | 97 ft | 13 kts | 259° |
| 2026-05-09 15:50 | 26.45443 | 49.81430 | 98 ft | 10 kts | 331° |
| 2026-05-09 15:50 | 26.45520 | 49.81400 | 96 ft | 14 kts | 342° |
| 2026-05-09 15:50 | 26.45636 | 49.81365 | 96 ft | 23 kts | 345° |
| 2026-05-09 15:51 | 26.45845 | 49.81301 | 97 ft | 42 kts | 344° |
| 2026-05-09 15:51 | 26.46313 | 49.81156 | 98 ft | 108 kts | 344° |
| 2026-05-09 15:51 | 26.47297 | 49.80845 | 99 ft | 182 kts | 344° |
| 2026-05-09 15:51 | 26.48668 | 49.80412 | 461 ft | 218 kts | 345° |
| 2026-05-09 15:52 | 26.51737 | 49.79391 | 2197 ft | 239 kts | 346° |
| 2026-05-09 15:52 | 26.53399 | 49.79005 | 2905 ft | 250 kts | 348° |
| 2026-05-09 15:52 | 26.55138 | 49.78686 | 3532 ft | 260 kts | 346° |
| 2026-05-09 15:53 | 26.56914 | 49.78170 | 4174 ft | 273 kts | 340° |
| 2026-05-09 15:53 | 26.58804 | 49.77908 | 5180 ft | 269 kts | 1° |
| 2026-05-09 15:53 | 26.60573 | 49.78384 | 6610 ft | 265 kts | 20° |
| 2026-05-09 15:53 | 26.62166 | 49.79625 | 6954 ft | 302 kts | 44° |
| 2026-05-09 15:54 | 26.63340 | 49.81766 | 6969 ft | 345 kts | 69° |
| 2026-05-09 15:54 | 26.63774 | 49.84523 | 6985 ft | 378 kts | 89° |
| 2026-05-09 15:54 | 26.63383 | 49.87439 | 6972 ft | 373 kts | 108° |
| 2026-05-09 15:54 | 26.62211 | 49.89988 | 6956 ft | 379 kts | 129° |
| 2026-05-09 15:55 | 26.60594 | 49.92376 | 6958 ft | 385 kts | 120° |
| 2026-05-09 15:55 | 26.59657 | 49.95113 | 6955 ft | 374 kts | 100° |
| 2026-05-09 15:55 | 26.59556 | 49.98004 | 6967 ft | 372 kts | 79° |
| 2026-05-09 15:55 | 26.60204 | 50.00780 | 6965 ft | 369 kts | 67° |
| 2026-05-09 15:56 | 26.61118 | 50.03452 | 6967 ft | 368 kts | 66° |
| 2026-05-09 15:56 | 26.61951 | 50.06123 | 6965 ft | 369 kts | 72° |
| 2026-05-09 15:56 | 26.62491 | 50.08944 | 6972 ft | 371 kts | 79° |
| 2026-05-09 15:56 | 26.62852 | 50.11796 | 6974 ft | 372 kts | 81° |
| 2026-05-09 15:57 | 26.62952 | 50.14689 | 7409 ft | 374 kts | 96° |
| 2026-05-09 15:57 | 26.62235 | 50.17483 | 8381 ft | 377 kts | 116° |
| 2026-05-09 15:57 | 26.60783 | 50.19926 | 9459 ft | 380 kts | 129° |
| 2026-05-09 15:57 | 26.59005 | 50.22129 | 10378 ft | 384 kts | 135° |
| 2026-05-09 15:58 | 26.57109 | 50.24279 | 11011 ft | 395 kts | 135° |
| 2026-05-09 15:58 | 26.55246 | 50.26558 | 11054 ft | 396 kts | 132° |
| 2026-05-09 15:58 | 26.53503 | 50.28884 | 11038 ft | 388 kts | 131° |
| 2026-05-09 15:58 | 26.51729 | 50.31186 | 11041 ft | 390 kts | 133° |
| 2026-05-09 15:59 | 26.49947 | 50.33395 | 11039 ft | 387 kts | 134° |
| 2026-05-09 15:59 | 26.48160 | 50.35649 | 11039 ft | 387 kts | 129° |
| 2026-05-09 15:59 | 26.46822 | 50.38251 | 11053 ft | 389 kts | 111° |
| 2026-05-09 15:59 | 26.46235 | 50.41204 | 11065 ft | 392 kts | 94° |
| 2026-05-09 16:00 | 26.46197 | 50.44244 | 11066 ft | 393 kts | 88° |
| 2026-05-09 16:00 | 26.46233 | 50.45274 | 11066 ft | 392 kts | 87° |
| 2026-05-09 16:00 | 26.46432 | 50.50334 | 11069 ft | 394 kts | 90° |
| 2026-05-09 16:00 | 26.46383 | 50.53388 | 11068 ft | 393 kts | 91° |
| 2026-05-09 16:01 | 26.46324 | 50.56431 | 11103 ft | 393 kts | 90° |
| 2026-05-09 16:01 | 26.46334 | 50.59491 | 11620 ft | 395 kts | 89° |
| 2026-05-09 16:01 | 26.46355 | 50.62571 | 12552 ft | 399 kts | 90° |
| 2026-05-09 16:01 | 26.46344 | 50.65678 | 13449 ft | 404 kts | 91° |
| 2026-05-09 16:02 | 26.46321 | 50.68792 | 14158 ft | 409 kts | 90° |
| 2026-05-09 16:02 | 26.46314 | 50.75223 | 15713 ft | 417 kts | 91° |
| 2026-05-09 16:02 | 26.46302 | 50.78478 | 16454 ft | 421 kts | 92° |
| 2026-05-09 16:03 | 26.46276 | 50.81729 | 16875 ft | 426 kts | 94° |
| 2026-05-09 16:03 | 26.45974 | 50.85054 | 16926 ft | 425 kts | 99° |
| 2026-05-09 16:03 | 26.45569 | 50.88270 | 16931 ft | 423 kts | 100° |
| 2026-05-09 16:03 | 26.45148 | 50.91520 | 16934 ft | 422 kts | 99° |
| 2026-05-09 16:04 | 26.44769 | 50.94769 | 16933 ft | 423 kts | 99° |
| 2026-05-09 16:04 | 26.44403 | 50.98025 | 16933 ft | 422 kts | 99° |
| 2026-05-09 16:04 | 26.44016 | 51.01277 | 16935 ft | 422 kts | 99° |
| 2026-05-09 16:04 | 26.43619 | 51.04521 | 16932 ft | 423 kts | 99° |
| 2026-05-09 16:05 | 26.43359 | 51.06672 | 16931 ft | 423 kts | 99° |
| 2026-05-09 16:05 | 26.42974 | 51.09926 | 16933 ft | 422 kts | 99° |
| 2026-05-09 16:05 | 26.42589 | 51.13175 | 16941 ft | 423 kts | 99° |
| 2026-05-09 16:05 | 26.42196 | 51.16428 | 16939 ft | 422 kts | 99° |
| 2026-05-09 16:06 | 26.41803 | 51.19677 | 16934 ft | 423 kts | 99° |
| 2026-05-09 16:06 | 26.41412 | 51.22926 | 16925 ft | 423 kts | 99° |
| 2026-05-09 16:06 | 26.41020 | 51.26183 | 16927 ft | 422 kts | 99° |
| 2026-05-09 16:06 | 26.40627 | 51.29430 | 16932 ft | 423 kts | 99° |
| 2026-05-09 16:07 | 26.40232 | 51.32679 | 16926 ft | 423 kts | 99° |
| 2026-05-09 16:07 | 26.39837 | 51.35933 | 16922 ft | 422 kts | 99° |
| 2026-05-09 16:07 | 26.39443 | 51.39176 | 16924 ft | 423 kts | 99° |
| 2026-05-09 16:07 | 26.39044 | 51.42429 | 17624 ft | 427 kts | 98° |
| 2026-05-09 16:08 | 26.38648 | 51.45675 | 16857 ft | 424 kts | 99° |
| 2026-05-09 16:08 | 26.38248 | 51.48951 | 16889 ft | 432 kts | 99° |
| 2026-05-09 16:08 | 26.37835 | 51.52277 | 16893 ft | 431 kts | 100° |
| 2026-05-09 16:08 | 26.37282 | 51.55540 | 16886 ft | 427 kts | 102° |
| 2026-05-09 16:09 | 26.36721 | 51.58804 | 16886 ft | 429 kts | 102° |
| 2026-05-09 16:09 | 26.36160 | 51.62079 | 17143 ft | 431 kts | 103° |
| 2026-05-09 16:09 | 26.35588 | 51.65363 | 17917 ft | 434 kts | 103° |
| 2026-05-09 16:09 | 26.35008 | 51.68682 | 18636 ft | 438 kts | 103° |
| 2026-05-09 16:10 | 26.34425 | 51.72031 | 19282 ft | 442 kts | 103° |
| 2026-05-09 16:10 | 26.33838 | 51.75407 | 19919 ft | 446 kts | 104° |
| 2026-05-09 16:10 | 26.33242 | 51.78821 | 20537 ft | 451 kts | 104° |
| 2026-05-09 16:10 | 26.32638 | 51.82267 | 21142 ft | 455 kts | 104° |
| 2026-05-09 16:11 | 26.32029 | 51.85743 | 21744 ft | 459 kts | 105° |
| 2026-05-09 16:11 | 26.31413 | 51.89258 | 22333 ft | 464 kts | 105° |
| 2026-05-09 16:11 | 26.30790 | 51.92804 | 22900 ft | 468 kts | 105° |
| 2026-05-09 16:11 | 26.30162 | 51.96376 | 23468 ft | 472 kts | 105° |
| 2026-05-09 16:12 | 26.29527 | 51.99979 | 23917 ft | 476 kts | 105° |
| 2026-05-09 16:12 | 26.28886 | 52.03611 | 24355 ft | 480 kts | 105° |
| 2026-05-09 16:12 | 26.28245 | 52.07237 | 24785 ft | 484 kts | 106° |
| 2026-05-09 16:12 | 26.27592 | 52.10930 | 25209 ft | 489 kts | 106° |
| 2026-05-09 16:13 | 26.26931 | 52.14658 | 25655 ft | 493 kts | 106° |
| 2026-05-09 16:13 | 26.26263 | 52.18419 | 26064 ft | 497 kts | 106° |
| 2026-05-09 16:13 | 26.25590 | 52.22203 | 26463 ft | 500 kts | 106° |
| 2026-05-09 16:13 | 26.24910 | 52.26022 | 26885 ft | 504 kts | 106° |
| 2026-05-09 16:14 | 26.24225 | 52.29863 | 27272 ft | 508 kts | 106° |
| 2026-05-09 16:14 | 26.23533 | 52.33735 | 27675 ft | 511 kts | 106° |
| 2026-05-09 16:14 | 26.22835 | 52.37637 | 28058 ft | 515 kts | 106° |
| 2026-05-09 16:14 | 26.22131 | 52.41561 | 28435 ft | 519 kts | 106° |
| 2026-05-09 16:15 | 26.21421 | 52.45514 | 28825 ft | 522 kts | 106° |
| 2026-05-09 16:15 | 26.20704 | 52.49499 | 29202 ft | 526 kts | 107° |
| 2026-05-09 16:15 | 26.19981 | 52.53512 | 29570 ft | 529 kts | 106° |
| 2026-05-09 16:15 | 26.19252 | 52.57552 | 29950 ft | 533 kts | 106° |
| 2026-05-09 16:16 | 26.18528 | 52.61559 | 30265 ft | 536 kts | 106° |
| 2026-05-09 16:16 | 26.17789 | 52.65641 | 30580 ft | 539 kts | 106° |
| 2026-05-09 16:16 | 26.17046 | 52.69740 | 30888 ft | 542 kts | 106° |
| 2026-05-09 16:16 | 26.16294 | 52.73876 | 31185 ft | 545 kts | 106° |
| 2026-05-09 16:17 | 26.15541 | 52.78019 | 31566 ft | 546 kts | 106° |
| 2026-05-09 16:17 | 26.14788 | 52.82156 | 31991 ft | 546 kts | 106° |
| 2026-05-09 16:17 | 26.14031 | 52.86303 | 32423 ft | 545 kts | 106° |
| 2026-05-09 16:17 | 26.13273 | 52.90436 | 32836 ft | 546 kts | 106° |
| 2026-05-09 16:18 | 26.12514 | 52.94578 | 33224 ft | 546 kts | 106° |
| 2026-05-09 16:18 | 26.11755 | 52.98720 | 33615 ft | 546 kts | 106° |
| 2026-05-09 16:18 | 26.10994 | 53.02861 | 33974 ft | 546 kts | 106° |
| 2026-05-09 16:18 | 26.10231 | 53.06999 | 34312 ft | 546 kts | 106° |
| 2026-05-09 16:19 | 26.09468 | 53.11137 | 34672 ft | 545 kts | 106° |
| 2026-05-09 16:19 | 26.08705 | 53.15265 | 34988 ft | 546 kts | 106° |
| 2026-05-09 16:19 | 26.07939 | 53.19403 | 35302 ft | 546 kts | 106° |
| 2026-05-09 16:19 | 26.07172 | 53.23540 | 35604 ft | 546 kts | 106° |
| 2026-05-09 16:20 | 26.06406 | 53.27668 | 35904 ft | 546 kts | 106° |
| 2026-05-09 16:20 | 26.05638 | 53.31798 | 36197 ft | 546 kts | 107° |
| 2026-05-09 16:20 | 26.04868 | 53.35927 | 36486 ft | 545 kts | 107° |
| 2026-05-09 16:20 | 26.04107 | 53.40006 | 36760 ft | 545 kts | 107° |
| 2026-05-09 16:21 | 26.02570 | 53.48213 | 38361 ft | 539 kts | 103° |
| 2026-05-09 16:21 | 26.01806 | 53.52287 | 36693 ft | 537 kts | 105° |
| 2026-05-09 16:21 | 26.01056 | 53.56319 | 36778 ft | 528 kts | 107° |
| 2026-05-09 16:22 | 25.99529 | 53.64373 | 36839 ft | 536 kts | 107° |
| 2026-05-09 16:22 | 25.98003 | 53.72489 | 36845 ft | 535 kts | 107° |
| 2026-05-09 16:23 | 25.96466 | 53.80578 | 36832 ft | 534 kts | 107° |
| 2026-05-09 16:23 | 25.94931 | 53.88661 | 36822 ft | 535 kts | 107° |
| 2026-05-09 16:24 | 25.93399 | 53.96696 | 36823 ft | 535 kts | 107° |
| 2026-05-09 16:24 | 25.91855 | 54.04763 | 36828 ft | 534 kts | 107° |
| 2026-05-09 16:25 | 25.90309 | 54.12821 | 36825 ft | 532 kts | 107° |
| 2026-05-09 16:25 | 25.88762 | 54.20853 | 36826 ft | 532 kts | 107° |
| 2026-05-09 16:26 | 25.87210 | 54.28893 | 36822 ft | 531 kts | 107° |
| 2026-05-09 16:26 | 25.85654 | 54.36921 | 36821 ft | 531 kts | 107° |
| 2026-05-09 16:27 | 25.84095 | 54.44941 | 36817 ft | 531 kts | 107° |
| 2026-05-09 16:27 | 25.82543 | 54.52903 | 36817 ft | 531 kts | 107° |
| 2026-05-09 16:28 | 25.80975 | 54.60924 | 36797 ft | 531 kts | 106° |
| 2026-05-09 16:28 | 25.79475 | 54.68962 | 36820 ft | 530 kts | 104° |
| 2026-05-09 16:29 | 25.78189 | 54.77026 | 36818 ft | 531 kts | 104° |
| 2026-05-09 16:29 | 25.76900 | 54.85057 | 36820 ft | 531 kts | 104° |
| 2026-05-09 16:30 | 25.75605 | 54.93124 | 36817 ft | 531 kts | 104° |
| 2026-05-09 16:30 | 25.74300 | 55.01194 | 36812 ft | 531 kts | 104° |
| 2026-05-09 16:31 | 25.72997 | 55.09251 | 36799 ft | 530 kts | 104° |
| 2026-05-09 16:31 | 25.71695 | 55.17249 | 36794 ft | 530 kts | 104° |
| 2026-05-09 16:32 | 25.70601 | 55.23965 | 36804 ft | 526 kts | 104° |
| 2026-05-09 16:32 | 25.69080 | 55.33243 | 36803 ft | 528 kts | 104° |
| 2026-05-09 16:33 | 25.67765 | 55.41261 | 36815 ft | 528 kts | 104° |
| 2026-05-09 16:33 | 25.66442 | 55.49276 | 36818 ft | 528 kts | 104° |
| 2026-05-09 16:34 | 25.65119 | 55.57273 | 36817 ft | 528 kts | 104° |
| 2026-05-09 16:34 | 25.63799 | 55.65219 | 36825 ft | 527 kts | 104° |
| 2026-05-09 16:35 | 25.62465 | 55.73227 | 36833 ft | 527 kts | 104° |
| 2026-05-09 16:35 | 25.61131 | 55.81205 | 36855 ft | 525 kts | 104° |
| 2026-05-09 16:36 | 25.58470 | 55.97036 | 36852 ft | 524 kts | 104° |
| 2026-05-09 16:37 | 25.57120 | 56.05027 | 36851 ft | 525 kts | 104° |
| 2026-05-09 16:37 | 25.55773 | 56.12971 | 36839 ft | 524 kts | 104° |
| 2026-05-09 16:38 | 25.54429 | 56.20869 | 36824 ft | 524 kts | 104° |
| 2026-05-09 16:38 | 25.53074 | 56.28806 | 36812 ft | 524 kts | 104° |
| 2026-05-09 16:39 | 25.51714 | 56.36746 | 36788 ft | 525 kts | 104° |
| 2026-05-09 16:39 | 25.50353 | 56.44674 | 36792 ft | 523 kts | 104° |
| 2026-05-09 16:40 | 25.48994 | 56.52547 | 36783 ft | 523 kts | 104° |
| 2026-05-09 16:42 | 25.43497 | 56.84169 | 36786 ft | 523 kts | 104° |
| 2026-05-09 16:42 | 25.42113 | 56.92067 | 36795 ft | 522 kts | 104° |
| 2026-05-09 16:43 | 25.40728 | 56.99938 | 36802 ft | 520 kts | 104° |
| 2026-05-09 16:43 | 25.39350 | 57.07750 | 36798 ft | 520 kts | 104° |
| 2026-05-09 16:44 | 25.37960 | 57.15601 | 36798 ft | 519 kts | 104° |
| 2026-05-09 16:44 | 25.36568 | 57.23443 | 36797 ft | 519 kts | 104° |
| 2026-05-09 16:45 | 25.35172 | 57.31275 | 36795 ft | 519 kts | 104° |
| 2026-05-09 16:45 | 25.33771 | 57.39115 | 36796 ft | 519 kts | 104° |
| 2026-05-09 16:46 | 25.32374 | 57.46904 | 36801 ft | 520 kts | 104° |
| 2026-05-09 16:46 | 25.30964 | 57.54746 | 36799 ft | 520 kts | 104° |
| 2026-05-09 16:47 | 25.29551 | 57.62579 | 36800 ft | 519 kts | 104° |
| 2026-05-09 16:47 | 25.28138 | 57.70386 | 36797 ft | 518 kts | 104° |
| 2026-05-09 16:48 | 25.26757 | 57.78203 | 36793 ft | 519 kts | 98° |
| 2026-05-09 16:48 | 25.26394 | 57.86169 | 36807 ft | 523 kts | 93° |
| 2026-05-09 16:49 | 25.26146 | 57.94195 | 36805 ft | 522 kts | 95° |
| 2026-05-09 16:50 | 25.25694 | 58.06224 | 36804 ft | 523 kts | 94° |
| 2026-05-09 16:50 | 25.25381 | 58.14254 | 36806 ft | 523 kts | 94° |
| 2026-05-09 16:51 | 25.25081 | 58.22281 | 36799 ft | 523 kts | 94° |
| 2026-05-09 16:51 | 25.24771 | 58.30322 | 36797 ft | 523 kts | 94° |
| 2026-05-09 16:52 | 25.24458 | 58.38312 | 36795 ft | 523 kts | 94° |
| 2026-05-09 16:52 | 25.24142 | 58.46337 | 36783 ft | 522 kts | 94° |
| 2026-05-09 16:53 | 25.23822 | 58.54319 | 36772 ft | 517 kts | 94° |
| 2026-05-09 16:53 | 25.23498 | 58.62289 | 36782 ft | 521 kts | 94° |
| 2026-05-09 16:54 | 25.23225 | 58.68934 | 36788 ft | 520 kts | 94° |
| 2026-05-09 16:54 | 25.22893 | 58.76904 | 36781 ft | 519 kts | 94° |
| 2026-05-09 16:55 | 25.22557 | 58.84877 | 36781 ft | 519 kts | 94° |
| 2026-05-09 16:55 | 25.22217 | 58.92834 | 36780 ft | 519 kts | 94° |
| 2026-05-09 16:56 | 25.21872 | 59.00813 | 36777 ft | 519 kts | 94° |
| 2026-05-09 16:56 | 25.21524 | 59.08770 | 36782 ft | 519 kts | 94° |
| 2026-05-09 16:57 | 25.21171 | 59.16733 | 36784 ft | 519 kts | 94° |
| 2026-05-09 16:57 | 25.20814 | 59.24685 | 36784 ft | 519 kts | 94° |
| 2026-05-09 16:58 | 25.20455 | 59.32596 | 36779 ft | 519 kts | 94° |
| 2026-05-09 16:58 | 25.20085 | 59.40555 | 36787 ft | 518 kts | 94° |
| 2026-05-09 16:59 | 25.19694 | 59.48499 | 36792 ft | 518 kts | 94° |
| 2026-05-09 16:59 | 25.19309 | 59.56449 | 36790 ft | 518 kts | 94° |
| 2026-05-09 17:00 | 25.18914 | 59.64393 | 36790 ft | 518 kts | 94° |
| 2026-05-09 17:00 | 25.18521 | 59.72290 | 36795 ft | 518 kts | 94° |
| 2026-05-09 17:01 | 25.18118 | 59.80246 | 36797 ft | 518 kts | 94° |
| 2026-05-09 17:01 | 25.17712 | 59.88198 | 36800 ft | 518 kts | 94° |
| 2026-05-09 17:02 | 25.17303 | 59.96133 | 36794 ft | 518 kts | 94° |
| 2026-05-09 17:02 | 25.16888 | 60.04085 | 36794 ft | 518 kts | 94° |
| 2026-05-09 17:03 | 25.16473 | 60.11968 | 36795 ft | 518 kts | 94° |
| 2026-05-09 17:05 | 25.14713 | 60.43742 | 36796 ft | 518 kts | 94° |
| 2026-05-09 17:05 | 25.14264 | 60.51641 | 36795 ft | 518 kts | 94° |
| 2026-05-09 17:06 | 25.13808 | 60.59575 | 36797 ft | 518 kts | 94° |
| 2026-05-09 17:06 | 25.13344 | 60.67517 | 36800 ft | 518 kts | 95° |
| 2026-05-09 17:07 | 25.12863 | 60.75449 | 36802 ft | 518 kts | 94° |
| 2026-05-09 17:07 | 25.12386 | 60.83388 | 36801 ft | 518 kts | 95° |
| 2026-05-09 17:08 | 25.11900 | 60.91330 | 36808 ft | 518 kts | 95° |
| 2026-05-09 17:08 | 25.11170 | 61.03182 | 36808 ft | 518 kts | 95° |
| 2026-05-09 17:09 | 25.10674 | 61.11120 | 36813 ft | 518 kts | 95° |
| 2026-05-09 17:09 | 25.10176 | 61.19058 | 36813 ft | 518 kts | 95° |
| 2026-05-09 17:10 | 25.09670 | 61.27022 | 36810 ft | 518 kts | 95° |
| 2026-05-09 17:10 | 25.09163 | 61.34961 | 36819 ft | 518 kts | 95° |
| 2026-05-09 17:11 | 25.08654 | 61.42845 | 36808 ft | 517 kts | 95° |
| 2026-05-09 17:11 | 25.08140 | 61.50756 | 36809 ft | 517 kts | 95° |
| 2026-05-09 17:12 | 25.07631 | 61.58678 | 36815 ft | 517 kts | 94° |
| 2026-05-09 17:12 | 25.07181 | 61.66604 | 36821 ft | 517 kts | 94° |
| 2026-05-09 17:13 | 25.06690 | 61.74521 | 36822 ft | 518 kts | 94° |
| 2026-05-09 17:13 | 25.05959 | 61.82405 | 36833 ft | 516 kts | 101° |
| 2026-05-09 17:14 | 25.04611 | 61.90148 | 36827 ft | 517 kts | 102° |
| 2026-05-09 17:14 | 25.03339 | 61.97959 | 36825 ft | 517 kts | 101° |
| 2026-05-09 17:15 | 25.02025 | 62.05754 | 36832 ft | 517 kts | 102° |
| 2026-05-09 17:15 | 25.00719 | 62.13555 | 36827 ft | 517 kts | 101° |
| 2026-05-09 17:17 | 24.95472 | 62.44586 | 36824 ft | 515 kts | 101° |
| 2026-05-09 17:18 | 24.94151 | 62.52347 | 36827 ft | 516 kts | 101° |
| 2026-05-09 17:18 | 24.92822 | 62.60113 | 36831 ft | 515 kts | 101° |
| 2026-05-09 17:19 | 24.91492 | 62.67869 | 36828 ft | 515 kts | 101° |
| 2026-05-09 17:19 | 24.90163 | 62.75588 | 36828 ft | 514 kts | 101° |
| 2026-05-09 17:20 | 24.88826 | 62.83333 | 36828 ft | 514 kts | 101° |
| 2026-05-09 17:20 | 24.87482 | 62.91086 | 36828 ft | 515 kts | 101° |
| 2026-05-09 17:21 | 24.86145 | 62.98780 | 36831 ft | 515 kts | 102° |
| 2026-05-09 17:21 | 24.84799 | 63.06505 | 36825 ft | 513 kts | 101° |
| 2026-05-09 17:22 | 24.83450 | 63.14216 | 36825 ft | 512 kts | 101° |
| 2026-05-09 17:22 | 24.82099 | 63.21917 | 36824 ft | 513 kts | 101° |
| 2026-05-09 17:23 | 24.80741 | 63.29637 | 36828 ft | 513 kts | 101° |
| 2026-05-09 17:23 | 24.79379 | 63.37349 | 36824 ft | 514 kts | 101° |
| 2026-05-09 17:25 | 24.75272 | 63.60472 | 36840 ft | 514 kts | 102° |
| 2026-05-09 17:25 | 24.73892 | 63.68191 | 36838 ft | 514 kts | 102° |
| 2026-05-09 17:26 | 24.72508 | 63.75909 | 36837 ft | 514 kts | 101° |
| 2026-05-09 17:26 | 24.71122 | 63.83616 | 36832 ft | 512 kts | 101° |
| 2026-05-09 17:27 | 24.69735 | 63.91305 | 36825 ft | 512 kts | 101° |
| 2026-05-09 17:27 | 24.68345 | 63.98989 | 36827 ft | 512 kts | 101° |
| 2026-05-09 17:28 | 24.66949 | 64.06681 | 36839 ft | 513 kts | 101° |
| 2026-05-09 17:28 | 24.65554 | 64.14339 | 36839 ft | 514 kts | 101° |
| 2026-05-09 17:29 | 24.64150 | 64.22033 | 36836 ft | 514 kts | 102° |
| 2026-05-09 17:29 | 24.62738 | 64.29742 | 36840 ft | 514 kts | 102° |
| 2026-05-09 17:30 | 24.61322 | 64.37448 | 36842 ft | 514 kts | 101° |
| 2026-05-09 17:30 | 24.59904 | 64.45147 | 36839 ft | 514 kts | 102° |
| 2026-05-09 17:31 | 24.58491 | 64.52793 | 36837 ft | 514 kts | 102° |
| 2026-05-09 17:32 | 24.54928 | 64.71976 | 36836 ft | 512 kts | 102° |
| 2026-05-09 17:33 | 24.53498 | 64.79633 | 36836 ft | 511 kts | 102° |
| 2026-05-09 17:33 | 24.52895 | 64.87377 | 36874 ft | 511 kts | 85° |
| 2026-05-09 17:33 | 24.53249 | 64.91217 | 36465 ft | 510 kts | 81° |
| 2026-05-09 17:34 | 24.53773 | 64.95070 | 35807 ft | 511 kts | 80° |
| 2026-05-09 17:35 | 24.55714 | 65.18510 | 31210 ft | 516 kts | 85° |
| 2026-05-09 17:35 | 24.55967 | 65.22422 | 30692 ft | 510 kts | 85° |
| 2026-05-09 17:36 | 24.56246 | 65.26296 | 30141 ft | 506 kts | 85° |
| 2026-05-09 17:36 | 24.56563 | 65.30124 | 29582 ft | 501 kts | 84° |
| 2026-05-09 17:36 | 24.56867 | 65.33922 | 28933 ft | 497 kts | 85° |
| 2026-05-09 17:36 | 24.57140 | 65.37689 | 28355 ft | 492 kts | 85° |
| 2026-05-09 17:37 | 24.57410 | 65.41412 | 27773 ft | 487 kts | 85° |
| 2026-05-09 17:37 | 24.57694 | 65.45102 | 27212 ft | 482 kts | 85° |
| 2026-05-09 17:37 | 24.57976 | 65.48758 | 26657 ft | 476 kts | 85° |
| 2026-05-09 17:37 | 24.58243 | 65.52355 | 26084 ft | 471 kts | 85° |
| 2026-05-09 17:38 | 24.58501 | 65.55881 | 25531 ft | 466 kts | 85° |
| 2026-05-09 17:38 | 24.58764 | 65.59412 | 24984 ft | 460 kts | 85° |
| 2026-05-09 17:38 | 24.59025 | 65.62892 | 24442 ft | 455 kts | 85° |
| 2026-05-09 17:39 | 24.59530 | 65.69755 | 23387 ft | 445 kts | 85° |
| 2026-05-09 17:39 | 24.59777 | 65.73130 | 22783 ft | 440 kts | 85° |
| 2026-05-09 17:39 | 24.60022 | 65.76470 | 22208 ft | 435 kts | 85° |
| 2026-05-09 17:39 | 24.60263 | 65.79767 | 21630 ft | 430 kts | 85° |
| 2026-05-09 17:40 | 24.60500 | 65.83029 | 21066 ft | 425 kts | 85° |
| 2026-05-09 17:40 | 24.60730 | 65.86203 | 20519 ft | 420 kts | 85° |
| 2026-05-09 17:40 | 24.60961 | 65.89388 | 19965 ft | 416 kts | 85° |
| 2026-05-09 17:40 | 24.61189 | 65.92545 | 19432 ft | 411 kts | 85° |
| 2026-05-09 17:41 | 24.61413 | 65.95666 | 18909 ft | 407 kts | 85° |
| 2026-05-09 17:41 | 24.61560 | 65.97717 | 18578 ft | 405 kts | 85° |
| 2026-05-09 17:41 | 24.61783 | 66.00829 | 18172 ft | 402 kts | 85° |
| 2026-05-09 17:41 | 24.62000 | 66.03874 | 17722 ft | 399 kts | 85° |
| 2026-05-09 17:42 | 24.62212 | 66.06857 | 17284 ft | 395 kts | 85° |
| 2026-05-09 17:42 | 24.62425 | 66.09856 | 16903 ft | 391 kts | 85° |
| 2026-05-09 17:42 | 24.62633 | 66.12795 | 16849 ft | 379 kts | 85° |
| 2026-05-09 17:42 | 24.62833 | 66.15642 | 16844 ft | 370 kts | 85° |
| 2026-05-09 17:43 | 24.63036 | 66.18508 | 16855 ft | 386 kts | 85° |
| 2026-05-09 17:43 | 24.63249 | 66.21537 | 16865 ft | 404 kts | 85° |
| 2026-05-09 17:43 | 24.63464 | 66.24622 | 16863 ft | 401 kts | 85° |
| 2026-05-09 17:43 | 24.63676 | 66.27679 | 16865 ft | 401 kts | 85° |
| 2026-05-09 17:44 | 24.63890 | 66.30743 | 16865 ft | 402 kts | 85° |
| 2026-05-09 17:44 | 24.64101 | 66.33775 | 16858 ft | 402 kts | 85° |
| 2026-05-09 17:44 | 24.64313 | 66.36844 | 16855 ft | 402 kts | 85° |
| 2026-05-09 17:44 | 24.64524 | 66.39909 | 16863 ft | 402 kts | 85° |
| 2026-05-09 17:45 | 24.64735 | 66.42975 | 16857 ft | 402 kts | 85° |
| 2026-05-09 17:45 | 24.64945 | 66.46042 | 16862 ft | 402 kts | 85° |
| 2026-05-09 17:45 | 24.65155 | 66.49109 | 16857 ft | 402 kts | 85° |
| 2026-05-09 17:45 | 24.65364 | 66.52177 | 16861 ft | 402 kts | 85° |
| 2026-05-09 17:46 | 24.65572 | 66.55245 | 16855 ft | 402 kts | 85° |
| 2026-05-09 17:46 | 24.65766 | 66.58104 | 16862 ft | 403 kts | 85° |
| 2026-05-09 17:46 | 24.65971 | 66.61134 | 16858 ft | 400 kts | 85° |
| 2026-05-09 17:46 | 24.66174 | 66.64136 | 16838 ft | 387 kts | 85° |
| 2026-05-09 17:47 | 24.66368 | 66.67034 | 16838 ft | 372 kts | 84° |
| 2026-05-09 17:47 | 24.66555 | 66.69816 | 16834 ft | 359 kts | 84° |
| 2026-05-09 17:47 | 24.66736 | 66.72509 | 16757 ft | 349 kts | 85° |
| 2026-05-09 17:47 | 24.66914 | 66.75173 | 16338 ft | 349 kts | 84° |
| 2026-05-09 17:48 | 24.67092 | 66.77833 | 15956 ft | 348 kts | 84° |
| 2026-05-09 17:48 | 24.67268 | 66.80492 | 15606 ft | 347 kts | 84° |
| 2026-05-09 17:48 | 24.67443 | 66.83132 | 15262 ft | 345 kts | 84° |
| 2026-05-09 17:48 | 24.67617 | 66.85759 | 14930 ft | 343 kts | 84° |
| 2026-05-09 17:49 | 24.67788 | 66.88368 | 14518 ft | 340 kts | 83° |
| 2026-05-09 17:49 | 24.67958 | 66.90955 | 14067 ft | 338 kts | 83° |
| 2026-05-09 17:49 | 24.68126 | 66.93521 | 13542 ft | 336 kts | 83° |
| 2026-05-09 17:49 | 24.68295 | 66.96078 | 12972 ft | 334 kts | 83° |
| 2026-05-09 17:50 | 24.68459 | 66.98583 | 12416 ft | 332 kts | 84° |
| 2026-05-09 17:50 | 24.68799 | 67.03635 | 11145 ft | 333 kts | 81° |
| 2026-05-09 17:50 | 24.69479 | 67.06070 | 10370 ft | 336 kts | 62° |
| 2026-05-09 17:51 | 24.70670 | 67.08303 | 9596 ft | 341 kts | 57° |
| 2026-05-09 17:51 | 24.71969 | 67.10507 | 8776 ft | 346 kts | 58° |
| 2026-05-09 17:51 | 24.73213 | 67.12767 | 8279 ft | 341 kts | 60° |
| 2026-05-09 17:51 | 24.74378 | 67.14991 | 8022 ft | 328 kts | 60° |
| 2026-05-09 17:52 | 24.75506 | 67.17101 | 8006 ft | 317 kts | 60° |
| 2026-05-09 17:52 | 24.76663 | 67.19225 | 7683 ft | 333 kts | 60° |
| 2026-05-09 17:52 | 24.77853 | 67.21416 | 7058 ft | 335 kts | 60° |
| 2026-05-09 17:52 | 24.79050 | 67.23638 | 6319 ft | 341 kts | 60° |
| 2026-05-09 17:53 | 24.80267 | 67.25902 | 5503 ft | 347 kts | 60° |
| 2026-05-09 17:53 | 24.81509 | 67.28205 | 4709 ft | 352 kts | 60° |
| 2026-05-09 17:53 | 24.82765 | 67.30535 | 3905 ft | 356 kts | 60° |
| 2026-05-09 17:53 | 24.84031 | 67.32889 | 3243 ft | 356 kts | 59° |
| 2026-05-09 17:54 | 24.85277 | 67.35202 | 2908 ft | 344 kts | 59° |
| 2026-05-09 17:54 | 24.86468 | 67.37406 | 2833 ft | 324 kts | 56° |
| 2026-05-09 17:54 | 24.87937 | 67.39141 | 2855 ft | 301 kts | 31° |
| 2026-05-09 17:54 | 24.89772 | 67.39946 | 2836 ft | 279 kts | 3° |
| 2026-05-09 17:55 | 24.91599 | 67.39752 | 2819 ft | 254 kts | 334° |
| 2026-05-09 17:55 | 24.93081 | 67.38914 | 2826 ft | 227 kts | 327° |
| 2026-05-09 17:55 | 24.94395 | 67.38136 | 2821 ft | 202 kts | 330° |
| 2026-05-09 17:55 | 24.95400 | 67.37189 | 2782 ft | 192 kts | 294° |
| 2026-05-09 17:56 | 24.95618 | 67.35765 | 2922 ft | 192 kts | 259° |
| 2026-05-09 17:56 | 24.95202 | 67.34440 | 2861 ft | 173 kts | 252° |
| 2026-05-09 17:56 | 24.94858 | 67.33255 | 2799 ft | 158 kts | 252° |
| 2026-05-09 17:57 | 24.94260 | 67.30946 | 2176 ft | 151 kts | 255° |
| 2026-05-09 17:57 | 24.93977 | 67.29831 | 1734 ft | 151 kts | 256° |
| 2026-05-09 17:57 | 24.93704 | 67.28743 | 1331 ft | 148 kts | 256° |
| 2026-05-09 17:57 | 24.93425 | 67.27648 | 939 ft | 148 kts | 257° |
| 2026-05-09 17:58 | 24.93169 | 67.26557 | 584 ft | 147 kts | 255° |
| 2026-05-09 17:58 | 24.92911 | 67.25380 | 756 ft | 161 kts | 257° |
| 2026-05-09 17:58 | 24.92619 | 67.24218 | 820 ft | 155 kts | 255° |
| 2026-05-09 17:58 | 24.92289 | 67.22957 | 724 ft | 183 kts | 252° |
| 2026-05-09 17:59 | 24.91913 | 67.21558 | 843 ft | 199 kts | 254° |
| 2026-05-09 17:59 | 24.91524 | 67.20051 | 992 ft | 209 kts | 255° |
| 2026-05-09 17:59 | 24.91098 | 67.18526 | 1336 ft | 201 kts | 251° |
| 2026-05-09 17:59 | 24.90594 | 67.17255 | 1989 ft | 165 kts | 246° |
| 2026-05-09 18:00 | 24.90164 | 67.16184 | 2156 ft | 143 kts | 248° |
| 2026-05-09 18:00 | 24.89767 | 67.15155 | 2004 ft | 153 kts | 249° |
| 2026-05-09 18:00 | 24.89325 | 67.13994 | 1635 ft | 171 kts | 249° |
| 2026-05-09 18:00 | 24.88952 | 67.12762 | 1458 ft | 171 kts | 260° |
| 2026-05-09 18:01 | 24.88809 | 67.11431 | 1246 ft | 178 kts | 266° |
| 2026-05-09 18:01 | 24.88749 | 67.10099 | 1394 ft | 175 kts | 268° |
| 2026-05-09 18:01 | 24.88627 | 67.08763 | 1840 ft | 179 kts | 253° |
| 2026-05-09 18:01 | 24.87867 | 67.07573 | 1908 ft | 205 kts | 217° |
| 2026-05-09 18:02 | 24.86605 | 67.06895 | 1889 ft | 202 kts | 203° |
| 2026-05-09 18:02 | 24.85265 | 67.06369 | 1877 ft | 203 kts | 201° |
| 2026-05-09 18:02 | 24.83908 | 67.05875 | 1883 ft | 209 kts | 201° |
| 2026-05-09 18:02 | 24.82545 | 67.05386 | 1870 ft | 205 kts | 201° |
| 2026-05-09 18:03 | 24.81207 | 67.04903 | 1859 ft | 204 kts | 201° |
| 2026-05-09 18:03 | 24.79830 | 67.04411 | 1860 ft | 208 kts | 201° |
| 2026-05-09 18:03 | 24.78472 | 67.03924 | 1866 ft | 204 kts | 201° |
| 2026-05-09 18:03 | 24.77127 | 67.03443 | 1864 ft | 204 kts | 201° |
| 2026-05-09 18:04 | 24.75764 | 67.02964 | 1859 ft | 206 kts | 201° |
| 2026-05-09 18:04 | 24.74392 | 67.02481 | 1860 ft | 208 kts | 201° |
| 2026-05-09 18:04 | 24.73019 | 67.01999 | 1857 ft | 206 kts | 201° |
| 2026-05-09 18:04 | 24.71667 | 67.01533 | 1852 ft | 205 kts | 201° |
| 2026-05-09 18:05 | 24.70301 | 67.01067 | 1853 ft | 205 kts | 201° |
| 2026-05-09 18:05 | 24.68898 | 67.00579 | 1875 ft | 219 kts | 201° |
| 2026-05-09 18:05 | 24.67394 | 67.00045 | 1879 ft | 232 kts | 201° |
| 2026-05-09 18:05 | 24.65843 | 66.99491 | 1870 ft | 237 kts | 198° |
| 2026-05-09 18:06 | 24.64226 | 66.99499 | 1865 ft | 235 kts | 165° |
| 2026-05-09 18:06 | 24.62883 | 67.00427 | 1848 ft | 222 kts | 135° |
| 2026-05-09 18:06 | 24.62077 | 67.01779 | 1772 ft | 216 kts | 103° |
| 2026-05-09 18:06 | 24.62124 | 67.03416 | 1824 ft | 216 kts | 66° |
| 2026-05-09 18:07 | 24.62919 | 67.04839 | 1875 ft | 225 kts | 50° |
| 2026-05-09 18:07 | 24.63910 | 67.06158 | 1903 ft | 224 kts | 47° |
| 2026-05-09 18:07 | 24.64934 | 67.07470 | 2038 ft | 224 kts | 46° |
| 2026-05-09 18:07 | 24.65968 | 67.08783 | 2188 ft | 232 kts | 46° |
| 2026-05-09 18:08 | 24.67036 | 67.10131 | 2410 ft | 234 kts | 46° |
| 2026-05-09 18:08 | 24.68120 | 67.11484 | 2645 ft | 236 kts | 46° |
| 2026-05-09 18:08 | 24.69210 | 67.12840 | 2845 ft | 236 kts | 46° |
| 2026-05-09 18:08 | 24.70319 | 67.14209 | 3058 ft | 239 kts | 47° |
| 2026-05-09 18:09 | 24.71426 | 67.15556 | 3248 ft | 238 kts | 46° |
| 2026-05-09 18:09 | 24.72538 | 67.16890 | 3351 ft | 242 kts | 46° |
| 2026-05-09 18:09 | 24.73679 | 67.18249 | 3348 ft | 242 kts | 46° |
| 2026-05-09 18:09 | 24.74819 | 67.19617 | 3372 ft | 241 kts | 47° |
| 2026-05-09 18:10 | 24.75956 | 67.20968 | 3362 ft | 239 kts | 46° |
| 2026-05-09 18:10 | 24.76707 | 67.21858 | 3356 ft | 241 kts | 46° |
| 2026-05-09 18:10 | 24.78258 | 67.23683 | 3356 ft | 245 kts | 46° |
| 2026-05-09 18:10 | 24.79287 | 67.25163 | 3356 ft | 241 kts | 57° |
| 2026-05-09 18:11 | 24.80154 | 67.26757 | 3365 ft | 240 kts | 60° |
| 2026-05-09 18:11 | 24.80984 | 67.28360 | 3362 ft | 244 kts | 60° |
| 2026-05-09 18:11 | 24.81812 | 67.29966 | 3358 ft | 243 kts | 60° |
| 2026-05-09 18:11 | 24.82637 | 67.31570 | 3359 ft | 241 kts | 60° |
| 2026-05-09 18:12 | 24.83470 | 67.33187 | 3363 ft | 243 kts | 59° |
| 2026-05-09 18:12 | 24.84292 | 67.34794 | 3369 ft | 240 kts | 60° |
| 2026-05-09 18:12 | 24.85122 | 67.36405 | 3366 ft | 240 kts | 60° |
| 2026-05-09 18:12 | 24.85954 | 67.38012 | 3363 ft | 243 kts | 60° |
| 2026-05-09 18:13 | 24.86789 | 67.39613 | 3364 ft | 243 kts | 60° |
| 2026-05-09 18:13 | 24.87741 | 67.41140 | 3350 ft | 243 kts | 46° |
| 2026-05-09 18:13 | 24.89052 | 67.42293 | 3354 ft | 241 kts | 27° |
| 2026-05-09 18:13 | 24.90601 | 67.42944 | 3348 ft | 238 kts | 11° |
| 2026-05-09 18:14 | 24.92214 | 67.43235 | 3346 ft | 229 kts | 2° |
| 2026-05-09 18:14 | 24.93768 | 67.43294 | 3352 ft | 224 kts | 358° |
| 2026-05-09 18:14 | 24.95344 | 67.43243 | 3352 ft | 228 kts | 352° |
| 2026-05-09 18:14 | 24.96865 | 67.42848 | 3336 ft | 222 kts | 333° |
| 2026-05-09 18:15 | 24.98100 | 67.41970 | 3310 ft | 201 kts | 311° |
| 2026-05-09 18:15 | 24.98720 | 67.40674 | 3029 ft | 189 kts | 279° |
| 2026-05-09 18:15 | 24.98569 | 67.39299 | 2562 ft | 182 kts | 237° |
| 2026-05-09 18:15 | 24.97678 | 67.38321 | 2197 ft | 181 kts | 218° |
| 2026-05-09 18:16 | 24.96674 | 67.37434 | 1935 ft | 190 kts | 232° |
| 2026-05-09 18:16 | 24.95986 | 67.36233 | 1668 ft | 186 kts | 249° |
| 2026-05-09 18:16 | 24.95630 | 67.34914 | 1424 ft | 181 kts | 256° |
| 2026-05-09 18:16 | 24.95273 | 67.33576 | 1424 ft | 181 kts | 255° |
| 2026-05-09 18:17 | 24.94877 | 67.32251 | 1724 ft | 181 kts | 253° |
| 2026-05-09 18:17 | 24.94473 | 67.30890 | 1872 ft | 193 kts | 253° |
| 2026-05-09 18:17 | 24.94067 | 67.29495 | 1878 ft | 188 kts | 253° |
| 2026-05-09 18:17 | 24.93662 | 67.28180 | 1774 ft | 179 kts | 253° |
| 2026-05-09 18:18 | 24.93254 | 67.26882 | 1730 ft | 177 kts | 253° |
| 2026-05-09 18:18 | 24.92898 | 67.25558 | 1609 ft | 180 kts | 255° |
| 2026-05-09 18:18 | 24.92552 | 67.24256 | 1418 ft | 178 kts | 257° |
| 2026-05-09 18:18 | 24.92239 | 67.22947 | 1264 ft | 174 kts | 257° |
| 2026-05-09 18:19 | 24.91929 | 67.21660 | 1025 ft | 175 kts | 255° |
| 2026-05-09 18:19 | 24.91287 | 67.19104 | 669 ft | 165 kts | 256° |
| 2026-05-09 18:19 | 24.90972 | 67.17889 | 258 ft | 165 kts | 257° |
| 2026-05-09 18:20 | 24.90670 | 67.16683 | 110 ft | 156 kts | 255° |
| 2026-05-09 18:20 | 24.90423 | 67.15703 | 104 ft | 109 kts | 254° |
| 2026-05-09 18:20 | 24.90250 | 67.15032 | 101 ft | 75 kts | 253° |
| 2026-05-09 18:20 | 24.90144 | 67.14614 | 101 ft | 43 kts | 252° |
| 2026-05-09 18:21 | 24.90071 | 67.14367 | 101 ft | 24 kts | 236° |
| 2026-05-09 18:21 | 24.90017 | 67.14333 | 102 ft | 1 kts | 182° |
| 2026-05-09 18:21 | 24.90010 | 67.14335 | 101 ft | 2 kts | 171° |
| 2026-05-09 18:21 | 24.89987 | 67.14345 | 100 ft | 5 kts | 149° |
| 2026-05-09 18:22 | 24.89963 | 67.14378 | 99 ft | 7 kts | 119° |
| 2026-05-09 18:22 | 24.89940 | 67.14437 | 101 ft | 8 kts | 97° |
| 2026-05-09 18:22 | 24.89946 | 67.14464 | 100 ft | 2 kts | 84° |
| 2026-05-09 18:22 | 24.89948 | 67.14511 | 101 ft | 11 kts | 87° |
| 2026-05-09 18:23 | 24.89956 | 67.14612 | 101 ft | 14 kts | 79° |
| 2026-05-09 18:23 | 24.89968 | 67.14667 | 99 ft | 0 kts | 76° |
| 2026-05-09 18:24 | 24.89971 | 67.14682 | 99 ft | 4 kts | 76° |
| 2026-05-09 18:24 | 24.89983 | 67.14730 | 100 ft | 9 kts | 76° |
| 2026-05-09 18:25 | 24.90008 | 67.14840 | 100 ft | 0 kts | 76° |
| 2026-05-09 18:26 | 24.90016 | 67.14870 | 101 ft | 8 kts | 75° |
| 2026-05-09 18:26 | 24.90038 | 67.14960 | 102 ft | 16 kts | 75° |
| 2026-05-09 18:26 | 24.90074 | 67.15105 | 100 ft | 22 kts | 75° |
| 2026-05-09 18:27 | 24.90109 | 67.15245 | 102 ft | 17 kts | 74° |
| 2026-05-09 18:27 | 24.90132 | 67.15335 | 101 ft | 18 kts | 74° |
| 2026-05-09 18:27 | 24.90180 | 67.15527 | 105 ft | 18 kts | 75° |
| 2026-05-09 18:27 | 24.90218 | 67.15677 | 103 ft | 23 kts | 73° |
| 2026-05-09 18:28 | 24.90260 | 67.15835 | 105 ft | 22 kts | 74° |
| 2026-05-09 18:28 | 24.90288 | 67.15944 | 105 ft | 23 kts | 74° |
| 2026-05-09 18:28 | 24.90347 | 67.16184 | 104 ft | 25 kts | 74° |
| 2026-05-09 18:28 | 24.90379 | 67.16310 | 105 ft | 26 kts | 74° |
| 2026-05-09 18:29 | 24.90424 | 67.16487 | 107 ft | 20 kts | 75° |
| 2026-05-09 18:29 | 24.90455 | 67.16627 | 105 ft | 16 kts | 86° |
| 2026-05-09 18:29 | 24.90414 | 67.16697 | 107 ft | 9 kts | 161° |
| 2026-05-09 18:29 | 24.90366 | 67.16706 | 107 ft | 5 kts | 188° |
| 2026-05-09 18:30 | 24.90338 | 67.16695 | 13 ft | 4 kts | 202° |
| 2026-05-09 18:30 | 24.90315 | 67.16684 | 106 ft | 3 kts | 204° |
| 2026-05-09 18:30 | 24.90297 | 67.16675 | 107 ft | 2 kts | 204° |
| 2026-05-09 18:30 | 24.90284 | 67.16668 | 106 ft | 2 kts | 205° |
| 2026-05-09 18:31 | 24.90276 | 67.16664 | 106 ft | 1 kts | 205° |
| 2026-05-09 18:31 | 24.90271 | 67.16662 | 106 ft | 1 kts | 205° |
| 2026-05-09 18:31 | 24.90260 | 67.16656 | 106 ft | 0 kts | 205° |
| 2026-05-09 18:31 | 24.90253 | 67.16653 | 106 ft | 2 kts | 205° |
| 2026-05-09 18:32 | 24.90247 | 67.16650 | 106 ft | 0 kts | 205° |